Time;durP1;ratioP1;P1;durP2;ratioP2;P2;SDS_P1;SDS_P2;PMS_P1;PMS_P2;Temp;Humidity;BMP_temperature;BMP_pressure;BME280_temperature;BME280_humidity;BME280_pressure;Samples;Min_cycle;Max_cycle;Signal;HPM_P1;HPM_P2
2022/08/10 00:00:37;;;;;;;1.85;1.63;;;19.80;70.20;;;;;;5135842;27;20055;-85
2022/08/10 00:03:06;;;;;;;1.83;1.67;;;19.80;70.40;;;;;;5133176;27;20106;-83
2022/08/10 00:05:32;;;;;;;2.67;1.75;;;19.80;70.60;;;;;;5135901;27;20035;-85
2022/08/10 00:07:58;;;;;;;2.22;1.90;;;19.70;70.70;;;;;;5134871;27;20038;-85
2022/08/10 00:10:24;;;;;;;2.30;1.75;;;19.70;71.00;;;;;;5135080;27;20031;-85
2022/08/10 00:12:50;;;;;;;2.40;1.58;;;19.70;71.30;;;;;;5135783;27;20031;-76
2022/08/10 00:15:17;;;;;;;2.55;1.90;;;19.60;71.30;;;;;;5136247;27;20098;-85
2022/08/10 00:17:43;;;;;;;2.10;1.67;;;19.60;71.60;;;;;;5127424;27;20598;-85
2022/08/10 00:20:09;;;;;;;1.98;1.60;;;19.50;71.80;;;;;;5128603;27;20055;-84
2022/08/10 00:22:35;;;;;;;2.10;1.73;;;19.40;72.10;;;;;;5134629;27;20035;-85
2022/08/10 00:25:01;;;;;;;2.00;1.80;;;19.30;72.40;;;;;;5133349;27;20149;-84
2022/08/10 00:27:28;;;;;;;2.78;1.90;;;19.20;72.60;;;;;;5133464;27;20043;-84
2022/08/10 00:29:54;;;;;;;3.75;1.70;;;19.20;73.00;;;;;;5131208;27;20031;-84
2022/08/10 00:32:20;;;;;;;3.22;1.70;;;19.10;73.20;;;;;;5133543;27;20092;-85
2022/08/10 00:34:45;;;;;;;2.25;1.63;;;19.10;73.50;;;;;;5128248;27;20023;-85
2022/08/10 00:37:13;;;;;;;2.35;1.67;;;19.00;73.70;;;;;;5132586;27;20547;-84
2022/08/10 00:39:38;;;;;;;2.72;1.67;;;19.00;73.90;;;;;;5133446;27;20023;-84
2022/08/10 00:42:09;;;;;;;2.05;1.90;;;18.90;73.90;;;;;;5133625;27;20034;-83
2022/08/10 00:44:35;;;;;;;;;;;18.90;74.00;;;;;;5135755;27;20042;-84
2022/08/10 00:47:01;;;;;;;3.40;1.98;;;18.90;74.40;;;;;;5143315;27;19961;-85
2022/08/10 00:49:27;;;;;;;2.20;1.95;;;18.90;74.50;;;;;;5138238;27;20477;-85
2022/08/10 00:51:53;;;;;;;4.30;1.80;;;18.80;74.70;;;;;;5144035;27;20100;-83
2022/08/10 00:54:19;;;;;;;2.95;1.40;;;18.80;74.80;;;;;;5138822;27;20030;-84
2022/08/10 00:56:45;;;;;;;2.45;1.90;;;18.80;75.00;;;;;;5128859;27;20024;-85
2022/08/10 00:59:10;;;;;;;2.08;1.70;;;18.70;75.10;;;;;;5131909;27;20084;-85
2022/08/10 01:01:36;;;;;;;1.88;1.77;;;18.70;75.60;;;;;;5135051;27;20030;-85
2022/08/10 01:04:03;;;;;;;2.15;1.90;;;18.70;75.80;;;;;;5133291;27;20035;-80
2022/08/10 01:06:51;;;;;;;2.97;1.88;;;18.60;76.00;;;;;;5133226;27;20023;-84
2022/08/10 01:09:25;;;;;;;2.75;1.90;;;18.60;76.30;;;;;;5132717;27;20027;-84
2022/08/10 01:12:15;;;;;;;2.50;1.70;;;18.50;76.40;;;;;;5131466;27;20031;-77
2022/08/10 01:14:51;;;;;;;3.53;1.83;;;18.50;76.70;;;;;;5132397;27;20035;-84
2022/08/10 01:17:35;;;;;;;3.45;1.70;;;18.50;76.80;;;;;;5124022;27;20110;-85
2022/08/10 01:20:16;;;;;;;1.98;1.60;;;18.50;76.80;;;;;;5131688;27;20080;-84
2022/08/10 01:23:00;;;;;;;2.30;1.70;;;18.50;76.80;;;;;;5132452;27;20031;-84
2022/08/10 01:26:03;;;;;;;2.97;1.60;;;18.50;77.10;;;;;;5132029;27;20027;-85
2022/08/10 01:29:06;;;;;;;4.20;1.60;;;18.50;77.30;;;;;;5129148;27;20130;-85
2022/08/10 01:31:40;;;;;;;2.90;2.08;;;18.40;77.60;;;;;;5133533;27;20065;-85
2022/08/10 01:34:25;;;;;;;3.97;1.83;;;18.40;77.90;;;;;;5133219;27;20042;-84
2022/08/10 01:37:00;;;;;;;3.35;1.88;;;18.30;78.20;;;;;;5132542;27;20373;-78
2022/08/10 01:39:30;;;;;;;2.63;1.55;;;18.30;78.40;;;;;;5133715;27;20107;-85
2022/08/10 01:41:59;;;;;;;3.23;1.73;;;18.20;78.60;;;;;;5125982;27;20176;-85
2022/08/10 01:44:31;;;;;;;3.03;2.03;;;18.20;79.00;;;;;;5154975;27;20321;-77
2022/08/10 01:48:27;;;;;;;3.45;2.15;;;18.20;79.30;;;;;;5130218;27;20011;-76
2022/08/10 01:49:47;;;;;;;2.73;1.80;;;18.10;79.60;;;;;;5130543;27;20072;-84
2022/08/10 01:52:17;;;;;;;4.10;1.90;;;18.10;79.90;;;;;;5136500;27;20088;-84
2022/08/10 01:54:44;;;;;;;2.15;1.58;;;18.10;80.10;;;;;;5135999;27;20042;-84
2022/08/10 01:57:12;;;;;;;2.22;1.55;;;18.10;80.40;;;;;;5107225;27;20031;-85
2022/08/10 01:59:40;;;;;;;2.03;1.58;;;18.10;80.50;;;;;;5131988;27;20059;-84
2022/08/10 02:02:10;;;;;;;2.63;2.00;;;18.00;80.80;;;;;;5119971;27;20100;-85
2022/08/10 02:04:40;;;;;;;3.65;2.08;;;18.00;81.00;;;;;;5131010;27;20031;-85
2022/08/10 02:07:08;;;;;;;2.15;1.60;;;18.00;81.30;;;;;;5132189;27;20035;-85
2022/08/10 02:09:37;;;;;;;2.45;1.85;;;17.90;81.50;;;;;;5130951;27;20108;-83
2022/08/10 02:12:07;;;;;;;2.13;1.83;;;17.90;82.00;;;;;;5132643;28;20055;-85
2022/08/10 02:14:37;;;;;;;3.22;1.98;;;17.80;82.20;;;;;;5125217;28;20088;-85
2022/08/10 02:17:08;;;;;;;2.30;1.90;;;17.80;82.50;;;;;;5129483;28;20438;-84
2022/08/10 02:19:35;;;;;;;;;;;17.80;82.80;;;;;;5129029;28;20027;-85
2022/08/10 02:22:01;;;;;;;4.57;2.30;;;17.80;83.00;;;;;;5129583;28;20287;-84
2022/08/10 02:24:28;;;;;;;2.47;1.70;;;17.70;83.50;;;;;;5129644;28;20028;-84
2022/08/10 02:26:55;;;;;;;4.57;2.13;;;17.70;83.80;;;;;;5126272;28;20055;-78
2022/08/10 02:29:21;;;;;;;3.67;1.92;;;17.60;84.10;;;;;;5133261;28;20028;-85
2022/08/10 02:31:47;;;;;;;2.85;1.83;;;17.60;84.50;;;;;;5132166;28;20071;-83
2022/08/10 02:34:14;;;;;;;4.18;2.90;;;17.60;84.90;;;;;;5132416;28;20030;-84
2022/08/10 02:36:51;;;;;;;2.72;2.25;;;17.50;85.40;;;;;;5131136;28;20075;-84
2022/08/10 02:39:19;;;;;;;2.95;1.88;;;17.50;85.60;;;;;;5132681;28;20031;-85
2022/08/10 02:42:00;;;;;;;2.90;2.00;;;17.50;85.80;;;;;;5131805;28;20047;-85
2022/08/10 02:44:50;;;;;;;2.40;1.90;;;17.50;86.30;;;;;;5133194;28;20055;-84
2022/08/10 02:47:33;;;;;;;4.97;2.45;;;17.40;86.60;;;;;;5130423;28;20031;-84
2022/08/10 02:50:11;;;;;;;1.80;1.60;;;17.40;87.10;;;;;;5131580;28;20032;-82
2022/08/10 02:52:52;;;;;;;3.97;2.33;;;17.40;87.70;;;;;;5132364;28;20035;-82
2022/08/10 02:55:25;;;;;;;2.50;1.90;;;17.30;88.10;;;;;;5131861;28;20102;-82
2022/08/10 02:57:54;;;;;;;3.72;2.38;;;17.30;88.30;;;;;;5131151;28;20113;-83
2022/08/10 03:00:22;;;;;;;5.28;1.88;;;17.30;88.90;;;;;;5130179;28;20027;-82
2022/08/10 03:02:50;;;;;;;3.35;2.20;;;17.20;89.60;;;;;;5111546;28;20034;-79
2022/08/10 03:05:18;;;;;;;4.97;2.50;;;17.20;89.50;;;;;;5124018;28;20034;-82
2022/08/10 03:07:49;;;;;;;3.47;2.42;;;17.20;90.00;;;;;;5132319;28;20035;-82
2022/08/10 03:10:19;;;;;;;3.17;2.30;;;17.10;90.20;;;;;;5131813;27;20020;-83
2022/08/10 03:12:49;;;;;;;3.92;2.20;;;17.10;90.40;;;;;;5118238;27;20050;-83
2022/08/10 03:15:18;;;;;;;4.03;2.47;;;17.10;90.60;;;;;;5135325;27;20209;-83
2022/08/10 03:17:45;;;;;;;4.05;2.47;;;17.10;90.70;;;;;;5132827;27;20384;-83
2022/08/10 03:20:14;;;;;;;3.05;2.30;;;17.00;91.00;;;;;;5133371;27;20531;-84
2022/08/10 03:22:41;;;;;;;5.90;2.50;;;17.00;91.00;;;;;;5137038;27;20468;-84
2022/08/10 03:25:09;;;;;;;4.22;2.28;;;17.00;91.40;;;;;;5132248;27;20071;-83
2022/08/10 03:27:35;;;;;;;4.47;2.30;;;17.00;91.30;;;;;;5135624;27;20047;-85
2022/08/10 03:30:01;;;;;;;4.35;2.40;;;17.00;91.40;;;;;;5134956;27;20045;-82
2022/08/10 03:32:29;;;;;;;2.72;2.38;;;17.00;91.50;;;;;;5134321;27;20106;-86
2022/08/10 03:34:56;;;;;;;4.85;2.30;;;17.00;91.70;;;;;;5135457;27;20499;-79
2022/08/10 03:37:21;;;;;;;3.53;2.25;;;16.90;91.70;;;;;;5136614;27;20046;-85
2022/08/10 03:39:49;;;;;;;3.60;2.40;;;17.00;91.90;;;;;;5136517;27;20027;-84
2022/08/10 03:42:16;;;;;;;3.47;1.77;;;17.00;92.10;;;;;;5127142;27;20023;-84
2022/08/10 03:44:42;;;;;;;3.25;2.05;;;16.90;92.10;;;;;;5135636;27;20371;-84
2022/08/10 03:47:10;;;;;;;5.72;2.55;;;16.80;92.30;;;;;;5134446;27;20392;-83
2022/08/10 03:49:37;;;;;;;4.93;2.40;;;16.80;92.50;;;;;;5118312;27;20023;-82
2022/08/10 03:52:05;;;;;;;4.13;2.50;;;16.80;92.70;;;;;;5129382;27;20031;-82
2022/08/10 03:54:32;;;;;;;3.03;2.72;;;16.80;92.90;;;;;;5127035;27;20307;-84
2022/08/10 03:56:58;;;;;;;4.57;2.17;;;16.80;92.90;;;;;;5126861;27;20031;-79
2022/08/10 03:59:24;;;;;;;2.58;2.28;;;16.70;92.90;;;;;;5136679;27;20031;-84
2022/08/10 04:01:51;;;;;;;4.35;2.58;;;16.70;93.10;;;;;;5135985;27;20023;-83
2022/08/10 04:04:18;;;;;;;3.65;2.70;;;16.70;93.20;;;;;;5135353;27;20017;-84
2022/08/10 04:06:44;;;;;;;3.95;2.15;;;16.60;93.30;;;;;;5136344;27;20030;-84
2022/08/10 04:09:10;;;;;;;3.67;2.22;;;16.60;93.50;;;;;;5135769;27;20019;-84
2022/08/10 04:11:36;;;;;;;5.20;2.70;;;16.60;93.60;;;;;;5136486;27;20042;-82
2022/08/10 04:14:03;;;;;;;3.33;2.30;;;16.50;93.80;;;;;;5134786;27;20035;-83
2022/08/10 04:16:28;;;;;;;3.00;2.17;;;16.60;93.90;;;;;;5135458;27;20027;-83
2022/08/10 04:18:54;;;;;;;3.10;2.30;;;16.60;94.00;;;;;;5134899;27;20027;-83
2022/08/10 04:21:29;;;;;;;3.38;2.33;;;16.60;94.10;;;;;;5134988;27;20464;-84
2022/08/10 04:23:58;;;;;;;2.97;2.40;;;16.60;94.10;;;;;;5134119;27;20035;-77
2022/08/10 04:26:24;;;;;;;5.38;2.30;;;16.60;94.20;;;;;;5134532;27;20043;-85
2022/08/10 04:28:50;;;;;;;2.97;2.10;;;16.60;94.30;;;;;;5117151;27;20467;-83
2022/08/10 04:31:17;;;;;;;3.97;2.35;;;16.50;94.40;;;;;;5134440;27;20036;-82
2022/08/10 04:33:48;;;;;;;3.20;1.98;;;16.60;94.40;;;;;;5135102;27;20110;-83
2022/08/10 04:36:15;;;;;;;2.83;2.50;;;16.70;94.30;;;;;;5135775;27;20098;-83
2022/08/10 04:38:42;;;;;;;3.25;1.90;;;16.70;94.30;;;;;;5135118;27;20027;-83
2022/08/10 04:41:08;;;;;;;3.60;2.30;;;16.70;94.20;;;;;;5133958;27;20023;-82
2022/08/10 04:43:35;;;;;;;4.13;2.33;;;16.80;94.10;;;;;;5134244;27;20016;-84
2022/08/10 04:46:00;;;;;;;3.05;2.55;;;16.90;94.00;;;;;;5133911;27;20031;-83
2022/08/10 04:48:26;;;;;;;2.63;2.40;;;16.90;93.90;;;;;;5134503;27;20122;-83
2022/08/10 04:50:51;;;;;;;3.22;2.05;;;16.90;93.90;;;;;;5134343;27;20098;-83
2022/08/10 04:53:18;;;;;;;2.08;1.85;;;17.00;93.90;;;;;;5133317;27;20041;-83
2022/08/10 04:55:43;;;;;;;4.57;2.10;;;17.00;93.90;;;;;;5133985;27;20111;-83
2022/08/10 04:58:09;;;;;;;3.67;2.30;;;17.00;93.90;;;;;;5134086;27;20459;-83
2022/08/10 05:00:35;;;;;;;3.75;2.40;;;17.00;93.90;;;;;;5133746;27;20471;-83
2022/08/10 05:03:00;;;;;;;3.65;2.30;;;17.00;93.80;;;;;;5133702;27;20083;-78
2022/08/10 05:05:27;;;;;;;3.40;2.22;;;17.10;93.80;;;;;;5134038;27;20019;-83
2022/08/10 05:07:53;;;;;;;3.00;2.10;;;17.20;93.80;;;;;;5134146;27;20042;-84
2022/08/10 05:10:18;;;;;;;2.00;1.80;;;17.20;93.70;;;;;;5134136;27;20164;-84
2022/08/10 05:12:44;;;;;;;2.13;1.88;;;17.20;93.60;;;;;;5134310;27;20027;-83
2022/08/10 05:15:12;;;;;;;2.20;1.60;;;17.30;93.60;;;;;;5133304;27;20027;-83
2022/08/10 05:17:39;;;;;;;2.42;1.90;;;17.30;93.40;;;;;;5131771;27;20038;-84
2022/08/10 05:20:06;;;;;;;4.53;2.50;;;17.40;93.30;;;;;;5132579;27;20069;-84
2022/08/10 05:22:37;;;;;;;3.47;2.08;;;17.50;93.30;;;;;;5133874;27;20041;-82
2022/08/10 05:25:04;;;;;;;2.50;2.05;;;17.60;93.30;;;;;;5132650;27;20038;-82
2022/08/10 05:27:30;;;;;;;3.05;2.10;;;17.60;93.20;;;;;;5133313;27;20039;-84
2022/08/10 05:29:56;;;;;;;5.68;2.55;;;17.70;93.00;;;;;;5133671;27;20460;-81
2022/08/10 05:32:21;;;;;;;2.40;2.00;;;17.80;92.80;;;;;;5133472;27;20035;-84
2022/08/10 05:34:47;;;;;;;3.58;1.77;;;17.90;92.50;;;;;;5114528;27;20101;-83
2022/08/10 05:37:14;;;;;;;5.72;2.20;;;18.00;92.30;;;;;;5132424;27;20023;-83
2022/08/10 05:39:41;;;;;;;3.03;1.90;;;18.10;92.20;;;;;;5134135;27;20027;-82
2022/08/10 05:42:08;;;;;;;3.88;1.90;;;18.10;91.90;;;;;;5133850;27;20479;-83
2022/08/10 05:44:34;;;;;;;3.20;2.25;;;18.20;91.90;;;;;;5133001;27;20371;-84
2022/08/10 05:46:59;;;;;;;3.80;2.15;;;18.30;91.80;;;;;;5133661;27;20031;-77
2022/08/10 05:49:25;;;;;;;8.30;2.28;;;18.40;91.30;;;;;;5114613;27;20417;-84
2022/08/10 05:51:51;;;;;;;5.82;2.28;;;18.60;90.40;;;;;;5133139;27;20049;-78
2022/08/10 05:54:20;;;;;;;2.80;1.90;;;18.70;90.20;;;;;;5132232;27;20464;-78
2022/08/10 05:56:48;;;;;;;2.45;1.88;;;18.90;89.40;;;;;;5132887;27;20023;-77
2022/08/10 05:59:16;;;;;;;3.20;2.13;;;19.00;88.00;;;;;;5131169;27;20033;-79
2022/08/10 06:01:48;;;;;;;9.38;2.25;;;19.20;87.70;;;;;;5113433;27;20027;-77
2022/08/10 06:04:21;;;;;;;5.97;2.20;;;19.40;87.40;;;;;;5131758;27;20037;-80
2022/08/10 06:06:51;;;;;;;4.22;2.00;;;19.60;86.50;;;;;;5132739;27;20447;-81
2022/08/10 06:09:18;;;;;;;3.25;1.67;;;19.70;86.40;;;;;;5130001;27;20027;-77
2022/08/10 06:11:45;;;;;;;2.67;1.80;;;19.70;86.60;;;;;;5132359;27;20027;-79
2022/08/10 06:16:59;;;;;;;8.77;2.63;;;19.90;85.70;;;;;;5127313;28;20034;-78
2022/08/10 06:19:26;;;;;;;4.95;2.45;;;20.10;84.70;;;;;;5129561;28;20039;-79
2022/08/10 06:21:52;;;;;;;6.45;2.40;;;20.20;83.30;;;;;;5132572;28;20069;-79
2022/08/10 06:24:22;;;;;;;5.82;2.20;;;20.40;82.30;;;;;;5131278;28;20110;-82
2022/08/10 06:26:47;;;;;;;7.45;2.10;;;20.60;81.30;;;;;;5129135;28;20039;-82
2022/08/10 06:29:15;;;;;;;5.60;1.80;;;20.70;81.00;;;;;;5133921;28;20038;-84
2022/08/10 06:31:47;;;;;;;3.30;1.80;;;20.70;81.10;;;;;;5130065;28;20031;-83
2022/08/10 06:34:14;;;;;;;5.15;1.90;;;20.80;80.50;;;;;;5120515;28;20376;-79
2022/08/10 06:36:42;;;;;;;6.82;2.10;;;20.90;80.30;;;;;;5130694;28;20110;-81
2022/08/10 06:39:08;;;;;;;2.80;1.77;;;21.00;79.80;;;;;;5123873;28;20463;-80
2022/08/10 06:41:38;;;;;;;8.32;2.30;;;21.10;79.90;;;;;;5132181;28;20102;-78
2022/08/10 06:44:11;;;;;;;3.40;1.95;;;21.20;79.00;;;;;;5130879;28;20035;-81
2022/08/10 06:46:41;;;;;;;5.68;2.42;;;21.30;79.50;;;;;;5127808;27;20032;-80
2022/08/10 06:49:09;;;;;;;;;;;21.40;78.90;;;;;;5090557;27;20040;-83
2022/08/10 06:51:37;;;;;;;2.25;1.63;;;21.40;78.10;;;;;;5128910;27;19918;-78
2022/08/10 06:54:06;;;;;;;4.10;1.45;;;21.60;77.60;;;;;;5128297;27;20046;-82
2022/08/10 06:56:38;;;;;;;6.53;1.85;;;21.60;77.60;;;;;;5127268;27;20029;-80
2022/08/10 06:59:31;;;;;;;4.03;1.65;;;21.80;76.30;;;;;;5132909;27;20029;-82
2022/08/10 07:02:04;;;;;;;2.83;1.80;;;22.00;75.50;;;;;;5116348;27;20026;-79
2022/08/10 07:04:41;;;;;;;4.53;1.70;;;22.00;75.30;;;;;;5135228;27;20027;-79
2022/08/10 07:07:08;;;;;;;2.03;1.60;;;22.10;75.00;;;;;;5132279;27;20046;-78
2022/08/10 07:09:38;;;;;;;2.90;1.52;;;22.00;75.30;;;;;;5135774;27;20369;-77
2022/08/10 07:12:06;;;;;;;3.58;1.50;;;22.10;75.10;;;;;;5132406;27;20032;-82
2022/08/10 07:14:36;;;;;;;7.30;1.80;;;22.20;74.80;;;;;;5133206;27;20510;-79
2022/08/10 07:17:03;;;;;;;3.08;2.08;;;22.40;74.20;;;;;;5131324;27;20115;-81
2022/08/10 07:19:31;;;;;;;3.65;1.40;;;22.50;74.40;;;;;;5135719;27;20043;-78
2022/08/10 07:21:58;;;;;;;7.75;1.83;;;22.50;74.00;;;;;;5133826;27;20095;-79
2022/08/10 07:24:24;;;;;;;2.08;1.50;;;22.60;73.80;;;;;;5133300;27;20019;-77
2022/08/10 07:26:54;;;;;;;3.97;1.63;;;22.80;73.60;;;;;;5128900;27;20083;-79
2022/08/10 07:29:20;;;;;;;2.30;1.70;;;22.90;73.10;;;;;;5134041;27;20091;-81
2022/08/10 07:31:48;;;;;;;6.45;1.90;;;23.00;72.60;;;;;;5135659;27;20437;-78
2022/08/10 07:34:18;;;;;;;7.82;1.75;;;23.10;72.20;;;;;;5141710;27;20110;-78
2022/08/10 07:36:44;;;;;;;3.33;1.80;;;23.10;71.70;;;;;;5137804;27;20113;-79
2022/08/10 07:39:11;;;;;;;2.75;1.50;;;23.30;71.90;;;;;;5140180;27;20023;-80
2022/08/10 07:41:40;;;;;;;2.20;1.85;;;23.30;72.00;;;;;;5137989;27;20054;-79
2022/08/10 07:44:10;;;;;;;4.20;1.50;;;23.30;71.90;;;;;;5128711;27;20027;-79
2022/08/10 07:46:39;;;;;;;5.43;1.80;;;23.40;71.30;;;;;;5130312;27;20051;-78
2022/08/10 07:49:12;;;;;;;1.63;1.20;;;23.50;71.90;;;;;;5134289;27;20030;-83
2022/08/10 07:51:38;;;;;;;3.17;1.45;;;23.40;71.20;;;;;;5134056;27;20031;-78
2022/08/10 07:54:06;;;;;;;5.00;2.03;;;23.50;71.10;;;;;;5130248;27;20088;-82
2022/08/10 07:56:36;;;;;;;4.50;1.50;;;23.60;70.40;;;;;;5114849;27;20114;-78
2022/08/10 07:59:15;;;;;;;5.15;1.98;;;23.60;70.60;;;;;;5134635;27;20078;-80
2022/08/10 08:01:47;;;;;;;2.38;1.60;;;23.70;70.70;;;;;;5116535;27;20038;-78
2022/08/10 08:04:15;;;;;;;6.50;1.48;;;23.80;69.60;;;;;;5131535;27;20022;-81
2022/08/10 08:06:43;;;;;;;5.15;1.52;;;23.90;69.90;;;;;;5137072;27;20042;-80
2022/08/10 08:09:12;;;;;;;5.50;1.75;;;24.10;71.00;;;;;;5139546;27;20031;-80
2022/08/10 08:11:43;;;;;;;2.50;1.70;;;24.10;69.00;;;;;;5133518;27;20043;-80
2022/08/10 08:14:10;;;;;;;2.83;1.67;;;24.20;70.30;;;;;;5134084;27;20027;-80
2022/08/10 08:16:40;;;;;;;4.25;1.92;;;24.20;69.00;;;;;;5134349;27;20498;-80
2022/08/10 08:19:06;;;;;;;4.78;1.63;;;24.30;68.80;;;;;;5133199;27;20153;-81
2022/08/10 08:21:33;;;;;;;3.10;1.63;;;24.30;68.70;;;;;;5114140;27;20372;-79
2022/08/10 08:24:01;;;;;;;7.78;1.73;;;24.40;69.20;;;;;;5133289;27;20110;-87
2022/08/10 08:26:27;;;;;;;4.88;1.52;;;24.50;69.00;;;;;;5134093;27;20089;-82
2022/08/10 08:28:53;;;;;;;3.63;1.67;;;24.70;68.30;;;;;;5131252;27;20027;-85
2022/08/10 08:31:20;;;;;;;4.28;1.60;;;24.80;67.70;;;;;;5127515;27;20486;-85
2022/08/10 08:33:46;;;;;;;7.43;1.88;;;24.90;67.50;;;;;;5115071;28;20059;-84
2022/08/10 08:36:15;;;;;;;9.93;1.60;;;25.10;66.90;;;;;;5125596;27;20107;-86
2022/08/10 08:38:43;;;;;;;5.82;1.45;;;25.10;66.00;;;;;;5135700;27;20490;-82
2022/08/10 08:41:30;;;;;;;6.72;1.80;;;25.20;66.20;;;;;;5131550;27;20031;-84
2022/08/10 08:44:10;;;;;;;5.28;1.65;;;25.30;65.00;;;;;;5131432;27;20034;-87
2022/08/10 08:46:41;;;;;;;4.78;1.85;;;25.30;65.40;;;;;;5132289;27;20045;-90
2022/08/10 08:49:18;;;;;;;4.38;1.40;;;25.40;66.00;;;;;;5133350;27;20035;-85
2022/08/10 08:52:05;;;;;;;5.30;1.77;;;25.50;65.50;;;;;;5133857;27;20080;-89
2022/08/10 08:54:53;;;;;;;3.42;1.48;;;25.70;65.10;;;;;;5133193;27;20034;-86
2022/08/10 08:57:32;;;;;;;7.22;1.80;;;25.80;65.00;;;;;;5129490;27;20436;-86
2022/08/10 09:00:16;;;;;;;8.97;1.80;;;26.00;64.30;;;;;;5132130;27;20023;-88
2022/08/10 09:02:51;;;;;;;5.32;1.50;;;26.10;63.60;;;;;;5134539;27;20110;-86
2022/08/10 09:05:45;;;;;;;2.85;1.30;;;26.10;63.10;;;;;;5133310;27;20023;-84
2022/08/10 09:08:24;;;;;;;3.30;1.38;;;26.20;62.60;;;;;;5123536;27;20027;-78
2022/08/10 09:11:02;;;;;;;4.45;1.55;;;26.10;63.10;;;;;;5133938;27;20023;-85
2022/08/10 09:13:38;;;;;;;4.28;1.50;;;26.20;62.50;;;;;;5132557;27;20035;-81
2022/08/10 09:16:24;;;;;;;5.55;1.52;;;26.20;62.10;;;;;;5132407;27;20055;-78
2022/08/10 09:19:02;;;;;;;5.60;1.73;;;26.30;61.60;;;;;;5128306;27;20434;-81
2022/08/10 09:21:47;;;;;;;4.45;1.50;;;26.30;61.30;;;;;;5129484;27;20034;-84
2022/08/10 09:24:26;;;;;;;4.30;1.75;;;26.30;59.80;;;;;;5133542;27;20086;-82
2022/08/10 09:26:55;;;;;;;4.82;1.60;;;26.40;59.50;;;;;;5133884;27;20039;-84
2022/08/10 09:29:30;;;;;;;3.67;1.40;;;26.60;58.30;;;;;;5145901;27;20031;-91
2022/08/10 09:32:31;;;;;;;4.45;1.30;;;26.80;57.80;;;;;;5145085;27;20035;-89
2022/08/10 09:35:16;;;;;;;1.80;1.60;;;26.80;56.60;;;;;;5122413;27;20027;-89
2022/08/10 09:38:19;;;;;;;5.93;1.45;;;26.80;56.00;;;;;;5151151;27;20027;-88
2022/08/10 09:41:07;;;;;;;3.80;1.40;;;26.90;56.10;;;;;;5148397;27;20027;-87
2022/08/10 09:43:42;;;;;;;3.50;1.50;;;27.00;56.00;;;;;;5154198;27;20029;-90
2022/08/10 09:46:44;;;;;;;4.65;1.50;;;27.00;55.20;;;;;;5153759;27;20030;-78
2022/08/10 09:49:39;;;;;;;2.38;1.20;;;27.10;56.00;;;;;;5132985;27;20031;-83
2022/08/10 09:52:05;;;;;;;5.00;1.48;;;27.20;55.60;;;;;;5126708;27;20019;-79
2022/08/10 09:54:45;;;;;;;3.92;1.55;;;27.30;55.70;;;;;;5155824;27;20043;-87
2022/08/10 09:57:34;;;;;;;3.95;1.52;;;27.40;55.80;;;;;;5135425;27;20019;-83
2022/08/10 10:00:13;;;;;;;3.67;1.45;;;27.60;55.20;;;;;;5148909;27;20015;-86
2022/08/10 10:03:15;;;;;;;4.47;1.52;;;27.40;53.00;;;;;;5151981;27;20049;-91
2022/08/10 10:05:54;;;;;;;1.67;1.35;;;27.40;53.10;;;;;;5151336;27;20007;-80
2022/08/10 10:08:38;;;;;;;3.63;1.20;;;27.40;53.80;;;;;;5153252;27;20018;-79
2022/08/10 10:11:16;;;;;;;9.95;1.63;;;27.40;54.20;;;;;;5153525;27;20035;-77
2022/08/10 10:14:04;;;;;;;3.15;1.40;;;27.40;53.80;;;;;;5147087;28;20019;-83
2022/08/10 10:16:39;;;;;;;8.93;1.48;;;27.40;53.60;;;;;;5151155;28;20023;-81
2022/08/10 10:19:24;;;;;;;2.50;1.30;;;27.60;53.60;;;;;;5152142;28;20012;-74
2022/08/10 10:22:07;;;;;;;1.95;1.17;;;27.70;53.10;;;;;;5149695;27;20007;-83
2022/08/10 10:24:41;;;;;;;4.15;1.50;;;27.90;52.30;;;;;;5158758;27;20772;-75
2022/08/10 10:27:32;;;;;;;2.90;1.50;;;28.00;51.80;;;;;;5151566;27;20153;-81
2022/08/10 10:30:03;;;;;;;3.70;1.30;;;27.90;53.30;;;;;;5147584;27;20030;-82
2022/08/10 10:32:59;;;;;;;1.42;1.30;;;27.90;52.80;;;;;;5155367;27;20118;-83
2022/08/10 10:35:39;;;;;;;5.32;1.50;;;28.00;54.50;;;;;;5156089;27;20007;-83
2022/08/10 10:38:09;;;;;;;2.90;1.20;;;28.10;53.80;;;;;;5154247;27;20071;-76
2022/08/10 10:41:13;;;;;;;4.55;1.40;;;28.10;53.00;;;;;;5149010;27;20053;-82
2022/08/10 10:44:03;;;;;;;2.85;1.52;;;28.00;53.10;;;;;;5105785;27;20034;-83
2022/08/10 10:47:14;;;;;;;5.57;1.55;;;28.00;52.80;;;;;;5142395;27;20110;-81
2022/08/10 10:49:50;;;;;;;3.35;1.25;;;28.00;52.90;;;;;;5130640;27;20040;-83
2022/08/10 10:52:15;;;;;;;4.13;1.50;;;28.00;53.80;;;;;;5137669;27;20046;-86
2022/08/10 10:54:46;;;;;;;2.22;1.40;;;28.20;53.10;;;;;;5139624;27;20023;-85
2022/08/10 10:57:18;;;;;;;3.22;1.30;;;28.30;53.50;;;;;;5133988;27;20062;-85
2022/08/10 11:00:02;;;;;;;3.45;1.35;;;28.40;52.20;;;;;;5138812;27;20023;-83
2022/08/10 11:02:49;;;;;;;2.25;1.17;;;28.50;51.90;;;;;;5149972;27;20030;-77
2022/08/10 11:05:34;;;;;;;1.30;1.20;;;28.60;51.10;;;;;;5146926;27;20031;-88
2022/08/10 11:08:08;;;;;;;3.30;1.60;;;28.70;51.60;;;;;;5137019;27;20062;-84
2022/08/10 11:10:44;;;;;;;4.05;1.40;;;28.90;50.90;;;;;;5132742;27;20027;-83
2022/08/10 11:13:40;;;;;;;2.42;1.25;;;28.90;50.70;;;;;;5131218;27;20019;-83
2022/08/10 11:16:37;;;;;;;5.03;1.27;;;28.90;51.40;;;;;;5131345;27;20483;-78
2022/08/10 11:19:16;;;;;;;4.18;1.27;;;29.10;50.30;;;;;;5139321;27;20039;-87
2022/08/10 11:22:02;;;;;;;4.72;1.70;;;29.20;50.30;;;;;;5139341;27;20024;-84
2022/08/10 11:24:51;;;;;;;3.33;1.20;;;29.40;50.20;;;;;;5134015;27;20061;-86
2022/08/10 11:27:42;;;;;;;4.43;1.65;;;29.20;50.20;;;;;;5110576;27;20356;-85
2022/08/10 11:30:13;;;;;;;5.43;1.20;;;29.30;50.10;;;;;;5119064;27;20024;-79
2022/08/10 11:33:30;;;;;;;4.78;1.35;;;29.50;49.80;;;;;;5117735;28;20096;-90
2022/08/10 11:36:01;;;;;;;2.20;1.38;;;29.50;49.40;;;;;;5069622;27;20039;-90
2022/08/10 11:38:53;;;;;;;3.22;1.38;;;29.50;49.90;;;;;;5124829;27;20022;-86
2022/08/10 11:41:40;;;;;;;1.67;1.10;;;29.50;50.00;;;;;;5103667;27;20020;-87
2022/08/10 11:44:17;;;;;;;3.40;1.63;;;29.70;50.30;;;;;;5104711;27;20050;-79
2022/08/10 11:46:56;;;;;;;2.97;1.30;;;29.80;49.10;;;;;;5113485;27;20039;-85
2022/08/10 11:49:45;;;;;;;2.05;1.35;;;29.90;48.20;;;;;;5120028;27;20028;-89
2022/08/10 11:52:44;;;;;;;6.95;1.40;;;29.80;48.10;;;;;;5124252;27;20034;-89
2022/08/10 11:55:19;;;;;;;4.30;1.30;;;30.00;48.60;;;;;;5099311;27;20047;-83
2022/08/10 11:57:47;;;;;;;3.90;1.30;;;30.20;48.00;;;;;;5114561;27;20023;-81
2022/08/10 12:00:13;;;;;;;4.70;1.40;;;30.30;48.30;;;;;;5119037;27;20468;-79
2022/08/10 12:02:43;;;;;;;4.00;1.27;;;30.50;48.50;;;;;;5119710;27;20032;-81
2022/08/10 12:05:29;;;;;;;2.55;1.30;;;30.60;48.30;;;;;;5120272;27;20480;-76
2022/08/10 12:07:57;;;;;;;3.80;1.50;;;30.70;48.40;;;;;;5098441;28;20032;-80
2022/08/10 12:10:25;;;;;;;7.57;1.38;;;30.90;48.10;;;;;;5118843;27;20467;-79
2022/08/10 12:13:08;;;;;;;3.35;1.70;;;31.00;48.10;;;;;;5116106;27;20032;-81
2022/08/10 12:15:51;;;;;;;7.03;1.67;;;31.10;47.80;;;;;;5110009;27;20083;-81
2022/08/10 12:18:23;;;;;;;4.90;1.38;;;31.20;47.30;;;;;;5113801;27;20035;-75
2022/08/10 12:20:56;;;;;;;1.80;1.35;;;31.30;47.10;;;;;;5111919;27;20123;-79
2022/08/10 12:23:32;;;;;;;7.85;1.50;;;31.20;47.90;;;;;;5115917;27;20059;-76
2022/08/10 12:26:15;;;;;;;4.43;1.25;;;31.40;47.30;;;;;;5116257;27;20035;-82
2022/08/10 12:28:56;;;;;;;2.70;1.20;;;31.60;47.40;;;;;;5132476;27;20026;-79
2022/08/10 12:31:33;;;;;;;2.88;1.23;;;32.10;46.60;;;;;;5126895;27;20070;-77
2022/08/10 12:34:21;;;;;;;2.45;1.13;;;32.30;47.00;;;;;;5133655;27;20066;-79
2022/08/10 12:37:06;;;;;;;4.15;1.48;;;32.70;45.80;;;;;;5132683;27;20031;-78
2022/08/10 12:39:55;;;;;;;6.72;1.88;;;32.50;45.50;;;;;;5114012;27;20094;-76
2022/08/10 12:42:27;;;;;;;4.13;1.50;;;32.40;45.60;;;;;;5111286;27;20032;-77
2022/08/10 12:45:00;;;;;;;1.50;1.33;;;32.30;45.60;;;;;;5127425;27;20042;-76
2022/08/10 12:47:39;;;;;;;6.47;1.40;;;32.40;45.50;;;;;;5130704;27;20551;-79
2022/08/10 12:50:25;;;;;;;4.63;1.50;;;32.60;45.80;;;;;;5132115;27;20027;-75
2022/08/10 12:53:00;;;;;;;2.45;1.25;;;33.00;45.70;;;;;;5121141;27;20425;-82
2022/08/10 12:55:27;;;;;;;6.65;1.35;;;33.40;44.70;;;;;;5130224;27;20026;-82
2022/08/10 12:57:56;;;;;;;3.75;1.48;;;33.50;45.10;;;;;;5131931;27;20058;-76
2022/08/10 13:00:49;;;;;;;3.38;1.40;;;33.50;44.50;;;;;;5131342;27;20039;-80
2022/08/10 13:03:19;;;;;;;3.47;1.40;;;33.50;44.40;;;;;;5125230;27;20115;-80
2022/08/10 13:05:45;;;;;;;;;;;33.50;44.80;;;;;;5133971;27;20034;-83
2022/08/10 13:11:03;;;;;;;1.90;1.30;;;31.90;45.10;;;;;;5103966;27;20054;-82
2022/08/10 13:13:35;;;;;;;1.80;1.37;;;31.50;45.50;;;;;;5133937;27;20456;-86
2022/08/10 13:16:02;;;;;;;2.08;1.55;;;31.50;46.10;;;;;;5132860;27;20023;-86
2022/08/10 13:18:37;;;;;;;2.35;1.15;;;31.20;45.80;;;;;;5132400;27;20015;-85
2022/08/10 13:21:12;;;;;;;3.97;1.40;;;31.30;45.80;;;;;;5127716;27;20077;-86
2022/08/10 13:23:51;;;;;;;4.55;1.75;;;31.20;45.80;;;;;;5132165;27;20042;-85